sensor_id;sensor_type;location;lat;lon;timestamp;temperature;humidity
24412;DHT22;12544;46.760;15.942;2023-06-22T00:02:16;22.30;99.90
24412;DHT22;12544;46.760;15.942;2023-06-22T00:04:41;22.30;99.90
24412;DHT22;12544;46.760;15.942;2023-06-22T00:07:07;22.30;99.90
24412;DHT22;12544;46.760;15.942;2023-06-22T00:09:33;22.30;99.90
24412;DHT22;12544;46.760;15.942;2023-06-22T00:11:59;22.40;99.90
24412;DHT22;12544;46.760;15.942;2023-06-22T00:14:28;22.40;99.90
24412;DHT22;12544;46.760;15.942;2023-06-22T00:16:54;22.30;99.90
24412;DHT22;12544;46.760;15.942;2023-06-22T00:19:25;22.40;99.90
24412;DHT22;12544;46.760;15.942;2023-06-22T00:21:51;22.30;99.90
24412;DHT22;12544;46.760;15.942;2023-06-22T00:24:20;22.30;99.90
24412;DHT22;12544;46.760;15.942;2023-06-22T00:26:47;22.20;99.90
24412;DHT22;12544;46.760;15.942;2023-06-22T00:29:13;22.10;99.90
24412;DHT22;12544;46.760;15.942;2023-06-22T00:31:39;22.00;99.90
24412;DHT22;12544;46.760;15.942;2023-06-22T00:34:04;22.00;99.90
24412;DHT22;12544;46.760;15.942;2023-06-22T00:36:32;21.90;99.90
24412;DHT22;12544;46.760;15.942;2023-06-22T00:39:05;21.90;99.90
24412;DHT22;12544;46.760;15.942;2023-06-22T00:41:32;21.80;99.90
24412;DHT22;12544;46.760;15.942;2023-06-22T00:43:58;21.70;99.90
24412;DHT22;12544;46.760;15.942;2023-06-22T00:46:24;21.70;99.90
24412;DHT22;12544;46.760;15.942;2023-06-22T00:48:51;21.70;99.90
24412;DHT22;12544;46.760;15.942;2023-06-22T00:51:17;21.70;99.90
24412;DHT22;12544;46.760;15.942;2023-06-22T00:57:15;21.70;99.90
24412;DHT22;12544;46.760;15.942;2023-06-22T00:59:45;21.60;99.90
24412;DHT22;12544;46.760;15.942;2023-06-22T01:02:13;21.60;99.90
24412;DHT22;12544;46.760;15.942;2023-06-22T01:04:39;21.60;99.90
24412;DHT22;12544;46.760;15.942;2023-06-22T01:07:31;21.60;99.90
24412;DHT22;12544;46.760;15.942;2023-06-22T01:10:18;21.50;99.90
24412;DHT22;12544;46.760;15.942;2023-06-22T01:12:52;21.40;99.90
24412;DHT22;12544;46.760;15.942;2023-06-22T01:15:45;21.40;99.90
24412;DHT22;12544;46.760;15.942;2023-06-22T01:18:16;21.30;99.90
24412;DHT22;12544;46.760;15.942;2023-06-22T01:20:42;21.30;99.90
24412;DHT22;12544;46.760;15.942;2023-06-22T01:23:39;21.20;99.90
24412;DHT22;12544;46.760;15.942;2023-06-22T01:26:41;21.20;99.90
24412;DHT22;12544;46.760;15.942;2023-06-22T01:29:10;21.10;99.90
24412;DHT22;12544;46.760;15.942;2023-06-22T01:31:39;21.10;99.90
24412;DHT22;12544;46.760;15.942;2023-06-22T01:34:06;21.00;99.90
24412;DHT22;12544;46.760;15.942;2023-06-22T01:36:33;21.00;99.90
24412;DHT22;12544;46.760;15.942;2023-06-22T01:39:00;21.00;99.90
24412;DHT22;12544;46.760;15.942;2023-06-22T01:41:27;21.00;99.90
24412;DHT22;12544;46.760;15.942;2023-06-22T01:43:55;21.00;99.90
24412;DHT22;12544;46.760;15.942;2023-06-22T01:46:21;20.90;99.90
24412;DHT22;12544;46.760;15.942;2023-06-22T01:48:48;21.00;99.90
24412;DHT22;12544;46.760;15.942;2023-06-22T01:51:14;21.00;99.90
24412;DHT22;12544;46.760;15.942;2023-06-22T01:53:40;21.00;99.90
24412;DHT22;12544;46.760;15.942;2023-06-22T01:56:06;21.10;99.90
24412;DHT22;12544;46.760;15.942;2023-06-22T01:58:32;21.10;99.90
24412;DHT22;12544;46.760;15.942;2023-06-22T02:03:44;21.20;99.90
24412;DHT22;12544;46.760;15.942;2023-06-22T02:06:17;21.20;99.90
24412;DHT22;12544;46.760;15.942;2023-06-22T02:08:49;21.20;99.90
24412;DHT22;12544;46.760;15.942;2023-06-22T02:11:18;21.20;99.90
24412;DHT22;12544;46.760;15.942;2023-06-22T02:13:45;21.10;99.90
24412;DHT22;12544;46.760;15.942;2023-06-22T02:16:11;21.10;99.90
24412;DHT22;12544;46.760;15.942;2023-06-22T02:18:38;21.10;99.90
24412;DHT22;12544;46.760;15.942;2023-06-22T02:21:05;21.00;99.90
24412;DHT22;12544;46.760;15.942;2023-06-22T02:23:31;20.90;99.90
24412;DHT22;12544;46.760;15.942;2023-06-22T02:26:00;20.90;99.90
24412;DHT22;12544;46.760;15.942;2023-06-22T02:28:27;20.90;99.90
24412;DHT22;12544;46.760;15.942;2023-06-22T02:30:53;20.90;99.90
24412;DHT22;12544;46.760;15.942;2023-06-22T02:33:18;20.90;99.90
24412;DHT22;12544;46.760;15.942;2023-06-22T02:35:45;20.90;99.90
24412;DHT22;12544;46.760;15.942;2023-06-22T02:38:13;20.90;99.90
24412;DHT22;12544;46.760;15.942;2023-06-22T02:40:38;20.80;99.90
24412;DHT22;12544;46.760;15.942;2023-06-22T02:43:04;20.80;99.90
24412;DHT22;12544;46.760;15.942;2023-06-22T02:45:30;20.80;99.90
24412;DHT22;12544;46.760;15.942;2023-06-22T02:47:56;20.80;99.90
24412;DHT22;12544;46.760;15.942;2023-06-22T02:50:21;20.80;99.90
24412;DHT22;12544;46.760;15.942;2023-06-22T02:52:47;20.80;99.90
24412;DHT22;12544;46.760;15.942;2023-06-22T02:55:12;20.80;99.90
24412;DHT22;12544;46.760;15.942;2023-06-22T02:57:38;20.70;99.90
24412;DHT22;12544;46.760;15.942;2023-06-22T03:00:09;20.70;99.90
24412;DHT22;12544;46.760;15.942;2023-06-22T03:02:45;20.80;99.90
24412;DHT22;12544;46.760;15.942;2023-06-22T03:05:12;20.80;99.90
24412;DHT22;12544;46.760;15.942;2023-06-22T03:07:42;20.80;99.90
24412;DHT22;12544;46.760;15.942;2023-06-22T03:10:12;20.80;99.90
24412;DHT22;12544;46.760;15.942;2023-06-22T03:12:39;20.80;99.90
24412;DHT22;12544;46.760;15.942;2023-06-22T03:15:11;20.80;99.90
24412;DHT22;12544;46.760;15.942;2023-06-22T03:17:38;20.80;99.90
24412;DHT22;12544;46.760;15.942;2023-06-22T03:20:08;20.70;99.90
24412;DHT22;12544;46.760;15.942;2023-06-22T03:22:38;20.70;99.90
24412;DHT22;12544;46.760;15.942;2023-06-22T03:25:05;20.70;99.90
24412;DHT22;12544;46.760;15.942;2023-06-22T03:27:39;20.70;99.90
24412;DHT22;12544;46.760;15.942;2023-06-22T03:30:06;20.70;99.90
24412;DHT22;12544;46.760;15.942;2023-06-22T03:32:32;20.70;99.90
24412;DHT22;12544;46.760;15.942;2023-06-22T03:34:58;20.60;99.90
24412;DHT22;12544;46.760;15.942;2023-06-22T03:37:26;20.60;99.90
24412;DHT22;12544;46.760;15.942;2023-06-22T03:39:52;20.60;99.90
24412;DHT22;12544;46.760;15.942;2023-06-22T03:42:18;20.60;99.90
24412;DHT22;12544;46.760;15.942;2023-06-22T03:44:44;20.60;99.90
24412;DHT22;12544;46.760;15.942;2023-06-22T03:47:10;20.60;99.90
24412;DHT22;12544;46.760;15.942;2023-06-22T03:49:35;20.60;99.90
24412;DHT22;12544;46.760;15.942;2023-06-22T03:52:02;20.60;99.90
24412;DHT22;12544;46.760;15.942;2023-06-22T03:54:31;20.50;99.90
24412;DHT22;12544;46.760;15.942;2023-06-22T03:56:57;20.50;99.90
24412;DHT22;12544;46.760;15.942;2023-06-22T03:59:23;20.60;99.90
24412;DHT22;12544;46.760;15.942;2023-06-22T04:01:49;20.60;99.90
24412;DHT22;12544;46.760;15.942;2023-06-22T04:04:16;20.50;99.90
24412;DHT22;12544;46.760;15.942;2023-06-22T04:06:41;20.50;99.90
24412;DHT22;12544;46.760;15.942;2023-06-22T04:09:07;20.50;99.90
24412;DHT22;12544;46.760;15.942;2023-06-22T04:11:33;20.60;99.90
24412;DHT22;12544;46.760;15.942;2023-06-22T04:13:58;20.60;99.90
24412;DHT22;12544;46.760;15.942;2023-06-22T04:16:24;20.70;99.90
24412;DHT22;12544;46.760;15.942;2023-06-22T04:18:49;20.70;99.90
24412;DHT22;12544;46.760;15.942;2023-06-22T04:21:15;20.70;99.90
24412;DHT22;12544;46.760;15.942;2023-06-22T04:23:41;20.70;99.90
24412;DHT22;12544;46.760;15.942;2023-06-22T04:26:08;20.80;99.90
24412;DHT22;12544;46.760;15.942;2023-06-22T04:28:33;20.90;99.90
24412;DHT22;12544;46.760;15.942;2023-06-22T04:31:01;21.00;99.90
24412;DHT22;12544;46.760;15.942;2023-06-22T04:33:28;21.00;99.90
24412;DHT22;12544;46.760;15.942;2023-06-22T04:35:57;21.00;99.90
24412;DHT22;12544;46.760;15.942;2023-06-22T04:38:23;21.10;99.90
24412;DHT22;12544;46.760;15.942;2023-06-22T04:40:50;21.10;99.90
24412;DHT22;12544;46.760;15.942;2023-06-22T04:43:15;21.20;99.90
24412;DHT22;12544;46.760;15.942;2023-06-22T04:45:41;21.20;99.90
24412;DHT22;12544;46.760;15.942;2023-06-22T04:48:07;21.30;99.90
24412;DHT22;12544;46.760;15.942;2023-06-22T04:50:36;21.40;99.90
24412;DHT22;12544;46.760;15.942;2023-06-22T04:53:03;21.50;99.90
24412;DHT22;12544;46.760;15.942;2023-06-22T04:55:33;21.50;99.90
24412;DHT22;12544;46.760;15.942;2023-06-22T04:57:59;21.60;99.90
24412;DHT22;12544;46.760;15.942;2023-06-22T05:00:30;21.70;99.90
24412;DHT22;12544;46.760;15.942;2023-06-22T05:02:56;21.70;99.90
24412;DHT22;12544;46.760;15.942;2023-06-22T05:05:23;21.70;99.90
24412;DHT22;12544;46.760;15.942;2023-06-22T05:07:51;21.80;99.90
24412;DHT22;12544;46.760;15.942;2023-06-22T05:10:19;21.80;99.90
24412;DHT22;12544;46.760;15.942;2023-06-22T05:12:46;21.90;99.90
24412;DHT22;12544;46.760;15.942;2023-06-22T05:15:13;21.90;99.90
24412;DHT22;12544;46.760;15.942;2023-06-22T05:17:38;21.90;99.90
24412;DHT22;12544;46.760;15.942;2023-06-22T05:20:12;22.00;99.90
24412;DHT22;12544;46.760;15.942;2023-06-22T05:22:38;22.00;99.90
24412;DHT22;12544;46.760;15.942;2023-06-22T05:25:07;22.10;99.90
24412;DHT22;12544;46.760;15.942;2023-06-22T05:27:33;22.20;99.90
24412;DHT22;12544;46.760;15.942;2023-06-22T05:29:59;22.30;99.90
24412;DHT22;12544;46.760;15.942;2023-06-22T05:32:24;22.30;99.90
24412;DHT22;12544;46.760;15.942;2023-06-22T05:34:50;22.40;99.90
24412;DHT22;12544;46.760;15.942;2023-06-22T05:37:16;22.40;99.90
24412;DHT22;12544;46.760;15.942;2023-06-22T05:39:41;22.50;99.90
24412;DHT22;12544;46.760;15.942;2023-06-22T05:42:07;22.60;99.90
24412;DHT22;12544;46.760;15.942;2023-06-22T05:44:33;22.60;99.90
24412;DHT22;12544;46.760;15.942;2023-06-22T05:46:59;22.70;99.90
24412;DHT22;12544;46.760;15.942;2023-06-22T05:49:25;22.80;99.90
24412;DHT22;12544;46.760;15.942;2023-06-22T05:51:55;22.80;99.90
24412;DHT22;12544;46.760;15.942;2023-06-22T05:54:22;22.90;99.90
24412;DHT22;12544;46.760;15.942;2023-06-22T05:56:47;22.90;99.90
24412;DHT22;12544;46.760;15.942;2023-06-22T05:59:13;23.00;99.90
24412;DHT22;12544;46.760;15.942;2023-06-22T06:01:39;23.10;99.90
24412;DHT22;12544;46.760;15.942;2023-06-22T06:04:06;23.10;99.90
24412;DHT22;12544;46.760;15.942;2023-06-22T06:06:33;23.20;99.90
24412;DHT22;12544;46.760;15.942;2023-06-22T06:09:00;23.30;99.90
24412;DHT22;12544;46.760;15.942;2023-06-22T06:11:26;23.40;99.90
24412;DHT22;12544;46.760;15.942;2023-06-22T06:13:52;23.40;99.90
24412;DHT22;12544;46.760;15.942;2023-06-22T06:16:17;23.50;99.90
24412;DHT22;12544;46.760;15.942;2023-06-22T06:18:43;23.50;99.90
24412;DHT22;12544;46.760;15.942;2023-06-22T06:21:08;23.60;99.90
24412;DHT22;12544;46.760;15.942;2023-06-22T06:23:34;23.70;99.90
24412;DHT22;12544;46.760;15.942;2023-06-22T06:26:00;23.80;99.90
24412;DHT22;12544;46.760;15.942;2023-06-22T06:28:26;23.80;99.90
24412;DHT22;12544;46.760;15.942;2023-06-22T06:30:52;23.90;99.90
24412;DHT22;12544;46.760;15.942;2023-06-22T06:33:18;24.00;99.90
24412;DHT22;12544;46.760;15.942;2023-06-22T06:35:46;24.10;99.90
24412;DHT22;12544;46.760;15.942;2023-06-22T06:38:11;24.20;99.90
24412;DHT22;12544;46.760;15.942;2023-06-22T06:40:37;24.20;99.90
24412;DHT22;12544;46.760;15.942;2023-06-22T06:43:03;24.30;99.90
24412;DHT22;12544;46.760;15.942;2023-06-22T06:45:28;24.40;99.90
24412;DHT22;12544;46.760;15.942;2023-06-22T06:47:56;24.50;99.90
24412;DHT22;12544;46.760;15.942;2023-06-22T06:50:22;24.60;99.90
24412;DHT22;12544;46.760;15.942;2023-06-22T06:52:47;24.70;99.90
24412;DHT22;12544;46.760;15.942;2023-06-22T06:55:15;24.80;99.90
24412;DHT22;12544;46.760;15.942;2023-06-22T06:57:42;24.80;99.90
24412;DHT22;12544;46.760;15.942;2023-06-22T07:00:09;24.90;99.90
24412;DHT22;12544;46.760;15.942;2023-06-22T07:02:41;25.00;99.90
24412;DHT22;12544;46.760;15.942;2023-06-22T07:05:07;25.00;99.90
24412;DHT22;12544;46.760;15.942;2023-06-22T07:07:33;25.10;99.90
24412;DHT22;12544;46.760;15.942;2023-06-22T07:09:59;25.10;99.90
24412;DHT22;12544;46.760;15.942;2023-06-22T07:12:24;25.20;99.90
24412;DHT22;12544;46.760;15.942;2023-06-22T07:14:52;25.20;99.90
24412;DHT22;12544;46.760;15.942;2023-06-22T07:17:18;25.20;99.90
24412;DHT22;12544;46.760;15.942;2023-06-22T07:19:44;25.30;99.90
24412;DHT22;12544;46.760;15.942;2023-06-22T07:22:09;25.40;99.90
24412;DHT22;12544;46.760;15.942;2023-06-22T07:24:35;25.50;99.90
24412;DHT22;12544;46.760;15.942;2023-06-22T07:27:00;25.50;99.90
24412;DHT22;12544;46.760;15.942;2023-06-22T07:29:27;25.60;99.90
24412;DHT22;12544;46.760;15.942;2023-06-22T07:31:53;25.70;99.90
24412;DHT22;12544;46.760;15.942;2023-06-22T07:34:19;25.80;99.90
24412;DHT22;12544;46.760;15.942;2023-06-22T07:36:45;25.80;99.90
24412;DHT22;12544;46.760;15.942;2023-06-22T07:39:11;25.90;99.90
24412;DHT22;12544;46.760;15.942;2023-06-22T07:41:39;25.90;99.90
24412;DHT22;12544;46.760;15.942;2023-06-22T07:44:05;26.00;99.90
24412;DHT22;12544;46.760;15.942;2023-06-22T07:46:31;26.10;99.90
24412;DHT22;12544;46.760;15.942;2023-06-22T07:48:57;26.20;99.90
24412;DHT22;12544;46.760;15.942;2023-06-22T07:51:24;26.30;99.90
24412;DHT22;12544;46.760;15.942;2023-06-22T07:53:49;26.30;99.90
24412;DHT22;12544;46.760;15.942;2023-06-22T07:56:15;26.30;99.90
24412;DHT22;12544;46.760;15.942;2023-06-22T07:58:45;26.40;99.90
24412;DHT22;12544;46.760;15.942;2023-06-22T08:01:11;26.50;99.90
24412;DHT22;12544;46.760;15.942;2023-06-22T08:03:37;26.50;99.90
24412;DHT22;12544;46.760;15.942;2023-06-22T08:06:03;26.60;99.90
24412;DHT22;12544;46.760;15.942;2023-06-22T08:08:28;26.60;99.90
24412;DHT22;12544;46.760;15.942;2023-06-22T08:10:54;26.80;99.90
24412;DHT22;12544;46.760;15.942;2023-06-22T08:13:20;26.90;99.90
24412;DHT22;12544;46.760;15.942;2023-06-22T08:15:45;27.00;99.90
24412;DHT22;12544;46.760;15.942;2023-06-22T08:18:11;27.10;99.90
24412;DHT22;12544;46.760;15.942;2023-06-22T08:20:37;27.10;99.90
24412;DHT22;12544;46.760;15.942;2023-06-22T08:23:02;27.20;99.90
24412;DHT22;12544;46.760;15.942;2023-06-22T08:25:31;27.30;99.90
24412;DHT22;12544;46.760;15.942;2023-06-22T08:27:56;27.30;99.90
24412;DHT22;12544;46.760;15.942;2023-06-22T08:30:22;27.40;99.90
24412;DHT22;12544;46.760;15.942;2023-06-22T08:32:48;27.50;99.90
24412;DHT22;12544;46.760;15.942;2023-06-22T08:35:13;27.50;99.90
24412;DHT22;12544;46.760;15.942;2023-06-22T08:37:39;27.50;99.90
24412;DHT22;12544;46.760;15.942;2023-06-22T08:40:07;27.60;99.90
24412;DHT22;12544;46.760;15.942;2023-06-22T08:42:34;27.70;99.90
24412;DHT22;12544;46.760;15.942;2023-06-22T08:44:59;27.70;99.90
24412;DHT22;12544;46.760;15.942;2023-06-22T08:47:27;27.70;99.90
24412;DHT22;12544;46.760;15.942;2023-06-22T08:49:52;27.80;99.90
24412;DHT22;12544;46.760;15.942;2023-06-22T08:52:18;27.90;99.90
24412;DHT22;12544;46.760;15.942;2023-06-22T08:54:45;28.00;99.90
24412;DHT22;12544;46.760;15.942;2023-06-22T08:57:11;27.90;99.90
24412;DHT22;12544;46.760;15.942;2023-06-22T08:59:37;27.90;99.90
24412;DHT22;12544;46.760;15.942;2023-06-22T09:02:02;28.00;99.90
24412;DHT22;12544;46.760;15.942;2023-06-22T09:04:28;28.00;99.90
24412;DHT22;12544;46.760;15.942;2023-06-22T09:06:53;28.00;99.90
24412;DHT22;12544;46.760;15.942;2023-06-22T09:09:21;28.00;99.90
24412;DHT22;12544;46.760;15.942;2023-06-22T09:11:47;28.10;99.90
24412;DHT22;12544;46.760;15.942;2023-06-22T09:14:13;28.30;99.90
24412;DHT22;12544;46.760;15.942;2023-06-22T09:16:39;28.40;99.90
24412;DHT22;12544;46.760;15.942;2023-06-22T09:19:04;28.50;99.90
24412;DHT22;12544;46.760;15.942;2023-06-22T09:21:30;28.60;99.90
24412;DHT22;12544;46.760;15.942;2023-06-22T09:23:56;28.80;99.90
24412;DHT22;12544;46.760;15.942;2023-06-22T09:26:22;28.90;99.90
24412;DHT22;12544;46.760;15.942;2023-06-22T09:28:49;28.90;99.90
24412;DHT22;12544;46.760;15.942;2023-06-22T09:31:15;29.00;99.90
24412;DHT22;12544;46.760;15.942;2023-06-22T09:33:42;29.10;99.90
24412;DHT22;12544;46.760;15.942;2023-06-22T09:36:08;29.20;99.90
24412;DHT22;12544;46.760;15.942;2023-06-22T09:38:38;29.30;99.90
24412;DHT22;12544;46.760;15.942;2023-06-22T09:41:03;29.40;99.90
24412;DHT22;12544;46.760;15.942;2023-06-22T09:43:30;29.60;99.90
24412;DHT22;12544;46.760;15.942;2023-06-22T09:45:56;29.60;99.90
24412;DHT22;12544;46.760;15.942;2023-06-22T09:48:22;29.80;99.90
24412;DHT22;12544;46.760;15.942;2023-06-22T09:50:48;29.80;99.90
24412;DHT22;12544;46.760;15.942;2023-06-22T09:53:13;29.90;99.90
24412;DHT22;12544;46.760;15.942;2023-06-22T09:55:39;29.90;99.90
24412;DHT22;12544;46.760;15.942;2023-06-22T09:58:04;29.90;99.90
24412;DHT22;12544;46.760;15.942;2023-06-22T10:00:30;30.00;99.90
24412;DHT22;12544;46.760;15.942;2023-06-22T10:02:55;30.10;99.90
24412;DHT22;12544;46.760;15.942;2023-06-22T10:05:22;30.10;99.90
24412;DHT22;12544;46.760;15.942;2023-06-22T10:07:47;30.20;99.90
24412;DHT22;12544;46.760;15.942;2023-06-22T10:10:13;30.20;99.90
24412;DHT22;12544;46.760;15.942;2023-06-22T10:12:48;30.30;99.90
24412;DHT22;12544;46.760;15.942;2023-06-22T10:15:14;30.30;99.90
24412;DHT22;12544;46.760;15.942;2023-06-22T10:17:40;30.50;99.90
24412;DHT22;12544;46.760;15.942;2023-06-22T10:20:06;30.50;99.90
24412;DHT22;12544;46.760;15.942;2023-06-22T10:22:41;30.50;99.90
24412;DHT22;12544;46.760;15.942;2023-06-22T10:25:08;30.50;99.90
24412;DHT22;12544;46.760;15.942;2023-06-22T10:27:34;30.60;99.90
24412;DHT22;12544;46.760;15.942;2023-06-22T10:29:59;30.80;99.90
24412;DHT22;12544;46.760;15.942;2023-06-22T10:32:25;30.90;99.90
24412;DHT22;12544;46.760;15.942;2023-06-22T10:34:51;31.10;99.90
24412;DHT22;12544;46.760;15.942;2023-06-22T10:37:16;31.10;99.90
24412;DHT22;12544;46.760;15.942;2023-06-22T10:39:42;31.20;99.90
24412;DHT22;12544;46.760;15.942;2023-06-22T10:42:07;31.30;99.90
24412;DHT22;12544;46.760;15.942;2023-06-22T10:44:33;31.30;99.90
24412;DHT22;12544;46.760;15.942;2023-06-22T10:46:59;31.30;99.90
24412;DHT22;12544;46.760;15.942;2023-06-22T10:49:24;31.40;99.90
24412;DHT22;12544;46.760;15.942;2023-06-22T10:51:50;31.40;99.90
24412;DHT22;12544;46.760;15.942;2023-06-22T10:54:15;31.30;99.90
24412;DHT22;12544;46.760;15.942;2023-06-22T10:56:43;31.50;99.90
24412;DHT22;12544;46.760;15.942;2023-06-22T10:59:09;31.70;99.90
24412;DHT22;12544;46.760;15.942;2023-06-22T11:01:35;31.70;99.90
24412;DHT22;12544;46.760;15.942;2023-06-22T11:04:02;31.60;99.90
24412;DHT22;12544;46.760;15.942;2023-06-22T11:06:28;31.60;99.90
24412;DHT22;12544;46.760;15.942;2023-06-22T11:08:53;31.60;99.90
24412;DHT22;12544;46.760;15.942;2023-06-22T11:11:19;31.60;99.90
24412;DHT22;12544;46.760;15.942;2023-06-22T11:13:44;31.60;99.90
24412;DHT22;12544;46.760;15.942;2023-06-22T11:16:10;31.70;99.90
24412;DHT22;12544;46.760;15.942;2023-06-22T11:18:36;31.80;99.90
24412;DHT22;12544;46.760;15.942;2023-06-22T11:21:02;31.90;99.90
24412;DHT22;12544;46.760;15.942;2023-06-22T11:23:27;31.90;99.90
24412;DHT22;12544;46.760;15.942;2023-06-22T11:25:54;31.90;99.90
24412;DHT22;12544;46.760;15.942;2023-06-22T11:28:20;32.00;99.90
24412;DHT22;12544;46.760;15.942;2023-06-22T11:30:45;31.90;99.90
24412;DHT22;12544;46.760;15.942;2023-06-22T11:33:11;32.00;99.90
24412;DHT22;12544;46.760;15.942;2023-06-22T11:35:37;32.00;99.90
24412;DHT22;12544;46.760;15.942;2023-06-22T11:38:03;32.20;99.90
24412;DHT22;12544;46.760;15.942;2023-06-22T11:40:29;32.30;99.90
24412;DHT22;12544;46.760;15.942;2023-06-22T11:42:55;32.40;99.90
24412;DHT22;12544;46.760;15.942;2023-06-22T11:45:21;32.50;99.90
24412;DHT22;12544;46.760;15.942;2023-06-22T11:47:47;32.60;99.90
24412;DHT22;12544;46.760;15.942;2023-06-22T11:50:12;32.70;99.90
24412;DHT22;12544;46.760;15.942;2023-06-22T11:52:38;32.80;99.90
24412;DHT22;12544;46.760;15.942;2023-06-22T11:55:04;32.90;99.90
24412;DHT22;12544;46.760;15.942;2023-06-22T11:57:34;32.90;99.90
24412;DHT22;12544;46.760;15.942;2023-06-22T12:00:00;32.90;99.90
24412;DHT22;12544;46.760;15.942;2023-06-22T12:02:25;33.10;99.90
24412;DHT22;12544;46.760;15.942;2023-06-22T12:04:51;33.20;99.90
24412;DHT22;12544;46.760;15.942;2023-06-22T12:07:18;33.10;99.90
24412;DHT22;12544;46.760;15.942;2023-06-22T12:09:43;33.20;99.90
24412;DHT22;12544;46.760;15.942;2023-06-22T12:12:09;33.20;99.60
24412;DHT22;12544;46.760;15.942;2023-06-22T12:14:35;33.20;99.90
24412;DHT22;12544;46.760;15.942;2023-06-22T12:17:01;33.20;99.90
24412;DHT22;12544;46.760;15.942;2023-06-22T12:19:26;33.30;99.90
24412;DHT22;12544;46.760;15.942;2023-06-22T12:21:52;33.40;99.90
24412;DHT22;12544;46.760;15.942;2023-06-22T12:24:18;33.50;99.70
24412;DHT22;12544;46.760;15.942;2023-06-22T12:26:43;33.70;99.10
24412;DHT22;12544;46.760;15.942;2023-06-22T12:29:09;33.70;99.00
24412;DHT22;12544;46.760;15.942;2023-06-22T12:31:36;33.60;99.90
24412;DHT22;12544;46.760;15.942;2023-06-22T12:34:04;33.60;99.50
24412;DHT22;12544;46.760;15.942;2023-06-22T12:36:29;33.50;99.70
24412;DHT22;12544;46.760;15.942;2023-06-22T12:38:55;33.60;99.80
24412;DHT22;12544;46.760;15.942;2023-06-22T12:41:21;33.70;99.30
24412;DHT22;12544;46.760;15.942;2023-06-22T12:43:46;33.80;99.50
24412;DHT22;12544;46.760;15.942;2023-06-22T12:46:12;33.70;99.10
24412;DHT22;12544;46.760;15.942;2023-06-22T12:48:38;33.70;99.60
24412;DHT22;12544;46.760;15.942;2023-06-22T12:51:08;33.80;99.90
24412;DHT22;12544;46.760;15.942;2023-06-22T12:53:34;33.90;99.50
24412;DHT22;12544;46.760;15.942;2023-06-22T12:56:00;33.80;98.60
24412;DHT22;12544;46.760;15.942;2023-06-22T12:58:25;33.80;99.00
24412;DHT22;12544;46.760;15.942;2023-06-22T13:00:51;34.00;98.90
24412;DHT22;12544;46.760;15.942;2023-06-22T13:03:16;34.20;97.70
24412;DHT22;12544;46.760;15.942;2023-06-22T13:05:42;34.10;98.40
24412;DHT22;12544;46.760;15.942;2023-06-22T13:08:08;34.00;98.40
24412;DHT22;12544;46.760;15.942;2023-06-22T13:10:34;33.90;97.90
24412;DHT22;12544;46.760;15.942;2023-06-22T13:12:59;34.10;99.50
24412;DHT22;12544;46.760;15.942;2023-06-22T13:15:28;34.10;98.60
24412;DHT22;12544;46.760;15.942;2023-06-22T13:17:54;34.10;98.20
24412;DHT22;12544;46.760;15.942;2023-06-22T13:20:20;34.20;98.20
24412;DHT22;12544;46.760;15.942;2023-06-22T13:22:46;34.40;98.30
24412;DHT22;12544;46.760;15.942;2023-06-22T13:25:11;34.30;99.40
24412;DHT22;12544;46.760;15.942;2023-06-22T13:27:41;34.10;98.80
24412;DHT22;12544;46.760;15.942;2023-06-22T13:30:08;33.90;99.20
24412;DHT22;12544;46.760;15.942;2023-06-22T13:32:34;33.90;98.90
24412;DHT22;12544;46.760;15.942;2023-06-22T13:34:59;34.00;98.40
24412;DHT22;12544;46.760;15.942;2023-06-22T13:37:26;34.10;98.90
24412;DHT22;12544;46.760;15.942;2023-06-22T13:39:51;34.10;98.70
24412;DHT22;12544;46.760;15.942;2023-06-22T13:42:17;34.20;99.00
24412;DHT22;12544;46.760;15.942;2023-06-22T13:44:43;34.20;99.60
24412;DHT22;12544;46.760;15.942;2023-06-22T13:47:08;34.20;98.20
24412;DHT22;12544;46.760;15.942;2023-06-22T13:49:34;34.30;98.60
24412;DHT22;12544;46.760;15.942;2023-06-22T13:52:00;34.20;98.00
24412;DHT22;12544;46.760;15.942;2023-06-22T13:54:25;34.30;99.00
24412;DHT22;12544;46.760;15.942;2023-06-22T13:56:51;34.50;98.90
24412;DHT22;12544;46.760;15.942;2023-06-22T13:59:17;34.60;98.00
24412;DHT22;12544;46.760;15.942;2023-06-22T14:01:43;34.70;97.70
24412;DHT22;12544;46.760;15.942;2023-06-22T14:04:09;34.90;98.40
24412;DHT22;12544;46.760;15.942;2023-06-22T14:06:35;34.90;97.00
24412;DHT22;12544;46.760;15.942;2023-06-22T14:09:00;35.00;97.80
24412;DHT22;12544;46.760;15.942;2023-06-22T14:11:26;34.90;97.80
24412;DHT22;12544;46.760;15.942;2023-06-22T14:13:52;34.60;97.40
24412;DHT22;12544;46.760;15.942;2023-06-22T14:16:18;34.50;98.50
24412;DHT22;12544;46.760;15.942;2023-06-22T14:18:45;34.60;99.10
24412;DHT22;12544;46.760;15.942;2023-06-22T14:21:10;34.60;97.40
24412;DHT22;12544;46.760;15.942;2023-06-22T14:23:36;34.60;97.80
24412;DHT22;12544;46.760;15.942;2023-06-22T14:26:03;34.60;97.70
24412;DHT22;12544;46.760;15.942;2023-06-22T14:28:29;34.60;97.60
24412;DHT22;12544;46.760;15.942;2023-06-22T14:30:54;34.70;98.30
24412;DHT22;12544;46.760;15.942;2023-06-22T14:33:20;34.80;98.10
24412;DHT22;12544;46.760;15.942;2023-06-22T14:35:45;34.80;97.70
24412;DHT22;12544;46.760;15.942;2023-06-22T14:38:11;34.60;98.40
24412;DHT22;12544;46.760;15.942;2023-06-22T14:40:37;34.60;96.70
24412;DHT22;12544;46.760;15.942;2023-06-22T14:43:02;34.70;98.10
24412;DHT22;12544;46.760;15.942;2023-06-22T14:45:28;34.80;97.60
24412;DHT22;12544;46.760;15.942;2023-06-22T14:47:53;35.00;97.30
24412;DHT22;12544;46.760;15.942;2023-06-22T14:50:19;35.10;97.40
24412;DHT22;12544;46.760;15.942;2023-06-22T14:52:45;35.10;96.20
24412;DHT22;12544;46.760;15.942;2023-06-22T14:55:11;35.20;96.50
24412;DHT22;12544;46.760;15.942;2023-06-22T14:57:37;35.10;97.40
24412;DHT22;12544;46.760;15.942;2023-06-22T15:00:03;35.00;96.40
24412;DHT22;12544;46.760;15.942;2023-06-22T15:02:28;35.10;97.10
24412;DHT22;12544;46.760;15.942;2023-06-22T15:04:54;35.20;96.50
24412;DHT22;12544;46.760;15.942;2023-06-22T15:07:20;35.10;96.80
24412;DHT22;12544;46.760;15.942;2023-06-22T15:09:46;35.00;96.50
24412;DHT22;12544;46.760;15.942;2023-06-22T15:12:11;34.90;96.90
24412;DHT22;12544;46.760;15.942;2023-06-22T15:14:41;35.00;96.40
24412;DHT22;12544;46.760;15.942;2023-06-22T15:17:07;35.00;96.40
24412;DHT22;12544;46.760;15.942;2023-06-22T15:19:36;34.90;97.30